Forside
METAR-TAF:

METAR-TAF

Lufthavne :

Wakkanai, Japan

Breddekreds: 45-24N, længdekreds: 141-48E, højde: 8 m

Aktuelle vejr

Denne rapport blev lavet for 26 minutter siden, kl. 04:00 UTC
Vind 11 kt fra nordvest
Temperatur 14°C
Fugtighed 82%
Tryk 1011 hPa
Sigt 10 km eller mere
Nogle få skyer i en højde af 1200 ft

METAR: RJCW 070400Z 31011KT 9999 FEW012 14/11 Q1011

Tid: 13:26 (04:26 UTC)


TAF: fraværende

Vejrobservationer og prognoser fra mere end 4000 lufthavne (METAR og TAF).

De gule og røde prikker repræsenterer de meteorologiske stationer.

Flyt musen over at se navnet på stationen.

Så klik over at se vejr observationer og prognoser.

At skifte det kort: Klik på de grønne knapper med et sort kors for at zoome ind; på den grønne knap med en bindestreg for at zoome ud; eller på de grønne pile for tilstødende kort.


METAR-TAF: